createdAt,value
2023-03-08T00:01:29.247Z,0.80
2023-03-08T00:04:14.731Z,0.60
2023-03-08T00:07:00.183Z,0.60
2023-03-08T00:09:45.551Z,0.70
2023-03-08T00:12:30.947Z,0.70
2023-03-08T00:15:16.863Z,0.80
2023-03-08T00:18:02.451Z,0.70
2023-03-08T00:20:47.726Z,0.70
2023-03-08T00:23:34.635Z,0.77
2023-03-08T00:26:20.022Z,0.75
2023-03-08T00:29:05.271Z,0.80
2023-03-08T00:31:50.810Z,0.70
2023-03-08T00:34:38.207Z,0.70
2023-03-08T00:37:23.716Z,0.80
2023-03-08T00:40:09.994Z,0.80
2023-03-08T00:42:55.368Z,1.00
2023-03-08T00:45:40.702Z,0.90
2023-03-08T00:48:26.299Z,0.77
2023-03-08T00:51:16.933Z,0.90
2023-03-08T00:54:02.490Z,0.85
2023-03-08T00:56:47.930Z,0.80
2023-03-08T00:59:33.389Z,1.13
2023-03-08T01:02:18.987Z,0.90
2023-03-08T01:05:04.701Z,0.80
2023-03-08T01:07:50.350Z,1.00
2023-03-08T01:10:36.360Z,0.90
2023-03-08T01:13:21.507Z,0.88
2023-03-08T01:16:15.828Z,0.85
2023-03-08T01:19:02.104Z,0.70
2023-03-08T01:21:47.199Z,1.25
2023-03-08T01:24:32.677Z,1.10
2023-03-08T01:27:18.097Z,1.00
2023-03-08T01:30:04.054Z,1.00
2023-03-08T01:32:49.962Z,1.02
2023-03-08T01:35:37.525Z,0.90
2023-03-08T01:38:24.030Z,0.80
2023-03-08T01:41:14.616Z,0.80
2023-03-08T01:44:00.118Z,1.08
2023-03-08T01:46:45.226Z,0.90
2023-03-08T01:49:47.994Z,0.93
2023-03-08T01:52:41.619Z,0.90
2023-03-08T01:55:27.079Z,0.88
2023-03-08T01:58:13.259Z,0.90
2023-03-08T02:00:58.729Z,1.00
2023-03-08T02:03:45.223Z,0.95
2023-03-08T02:06:30.866Z,0.75
2023-03-08T02:09:16.419Z,0.90
2023-03-08T02:12:05.758Z,1.05
2023-03-08T02:14:51.368Z,1.00
2023-03-08T02:17:39.566Z,0.82
2023-03-08T02:20:30.335Z,1.00
2023-03-08T02:23:19.001Z,1.20
2023-03-08T02:26:05.639Z,0.95
2023-03-08T02:28:51.242Z,1.10
2023-03-08T02:31:40.423Z,1.13
2023-03-08T02:34:26.311Z,1.40
2023-03-08T02:37:11.985Z,1.33
2023-03-08T02:39:57.866Z,1.70
2023-03-08T02:42:43.283Z,1.30
2023-03-08T02:45:31.187Z,1.30
2023-03-08T02:48:16.949Z,1.20
2023-03-08T02:51:02.374Z,1.13
2023-03-08T02:53:47.811Z,1.20
2023-03-08T02:56:34.065Z,1.08
2023-03-08T02:59:19.419Z,1.10
2023-03-08T03:02:04.760Z,0.93
2023-03-08T03:04:50.739Z,1.00
2023-03-08T03:07:38.480Z,0.98
2023-03-08T03:10:24.047Z,1.10
2023-03-08T03:13:09.470Z,0.80
2023-03-08T03:15:55.606Z,1.30
2023-03-08T03:18:41.189Z,0.82
2023-03-08T03:21:26.882Z,0.82
2023-03-08T03:24:13.207Z,1.10
2023-03-08T03:27:09.826Z,0.98
2023-03-08T03:29:57.586Z,1.08
2023-03-08T03:32:43.128Z,1.10
2023-03-08T03:35:28.718Z,1.20
2023-03-08T03:38:14.358Z,1.10
2023-03-08T03:41:08.666Z,1.23
2023-03-08T03:43:54.769Z,1.02
2023-03-08T03:46:40.149Z,1.00
2023-03-08T03:49:29.262Z,0.90
2023-03-08T03:52:15.197Z,0.95
2023-03-08T03:57:53.780Z,1.02
2023-03-08T04:00:40.031Z,0.98
2023-03-08T04:03:45.007Z,0.90
2023-03-08T04:06:33.872Z,1.00
2023-03-08T04:09:19.766Z,1.00
2023-03-08T04:12:12.161Z,1.23
2023-03-08T04:14:58.489Z,1.00
2023-03-08T04:17:47.848Z,1.10
2023-03-08T04:20:34.090Z,1.25
2023-03-08T04:23:20.134Z,1.40
2023-03-08T04:26:07.667Z,1.40
2023-03-08T04:28:53.726Z,1.67
2023-03-08T04:31:39.574Z,1.70
2023-03-08T04:34:28.632Z,2.10
2023-03-08T04:37:14.210Z,3.08
2023-03-08T04:40:05.580Z,2.85
2023-03-08T04:42:54.146Z,3.38
2023-03-08T04:45:45.183Z,3.47
2023-03-08T04:48:31.730Z,3.17
2023-03-08T04:51:17.251Z,2.83
2023-03-08T04:54:04.761Z,3.03
2023-03-08T04:56:52.213Z,2.85
2023-03-08T04:59:44.141Z,3.03
2023-03-08T05:02:32.507Z,3.00
2023-03-08T05:05:19.182Z,2.58
2023-03-08T05:08:05.393Z,2.70
2023-03-08T05:11:00.929Z,2.90
2023-03-08T05:13:49.324Z,3.00
2023-03-08T05:16:34.731Z,2.97
2023-03-08T05:19:21.840Z,3.08
2023-03-08T05:22:10.167Z,3.20
2023-03-08T05:25:01.497Z,2.95
2023-03-08T05:27:47.194Z,3.03
2023-03-08T05:30:33.397Z,3.10
2023-03-08T05:33:19.064Z,3.05
2023-03-08T05:36:06.656Z,3.10
2023-03-08T05:38:55.782Z,3.20
2023-03-08T05:41:45.943Z,3.28
2023-03-08T05:44:36.101Z,2.88
2023-03-08T05:47:21.445Z,3.28
2023-03-08T05:50:07.283Z,3.30
2023-03-08T05:52:55.115Z,3.05
2023-03-08T05:55:44.883Z,2.80
2023-03-08T05:58:31.314Z,3.10
2023-03-08T06:01:19.224Z,3.30
2023-03-08T06:04:04.904Z,3.10
2023-03-08T06:06:54.036Z,3.40
2023-03-08T06:09:42.312Z,3.13
2023-03-08T06:12:32.225Z,3.35
2023-03-08T06:15:20.746Z,3.42
2023-03-08T06:18:06.197Z,4.20
2023-03-08T06:20:59.334Z,3.55
2023-03-08T06:23:45.890Z,3.85
2023-03-08T06:26:31.623Z,4.30
2023-03-08T06:29:16.977Z,3.80
2023-03-08T06:32:03.363Z,3.80
2023-03-08T06:34:50.194Z,4.35
2023-03-08T06:37:36.269Z,4.70
2023-03-08T06:40:23.722Z,4.95
2023-03-08T06:43:09.133Z,4.53
2023-03-08T06:45:54.596Z,4.32
2023-03-08T06:48:41.342Z,4.20
2023-03-08T06:51:27.469Z,4.03
2023-03-08T06:54:17.376Z,4.85
2023-03-08T06:57:06.429Z,4.50
2023-03-08T06:59:52.021Z,4.38
2023-03-08T07:02:37.624Z,4.88
2023-03-08T07:05:23.332Z,5.50
2023-03-08T07:08:09.015Z,5.60
2023-03-08T07:10:54.219Z,5.57
2023-03-08T07:13:39.764Z,5.65
2023-03-08T07:16:25.398Z,6.53
2023-03-08T07:19:10.641Z,7.10
2023-03-08T07:21:56.114Z,6.90
2023-03-08T07:24:41.586Z,7.35
2023-03-08T07:27:27.004Z,7.78
2023-03-08T07:30:14.265Z,7.88
2023-03-08T07:32:59.661Z,9.43
2023-03-08T07:35:45.293Z,9.85
2023-03-08T07:38:30.652Z,9.10
2023-03-08T07:41:15.772Z,8.90
2023-03-08T07:44:02.572Z,8.68
2023-03-08T07:46:48.165Z,8.82
2023-03-08T07:49:34.015Z,8.88
2023-03-08T07:52:19.522Z,9.93
2023-03-08T07:55:05.652Z,8.43
2023-03-08T07:57:50.806Z,8.27
2023-03-08T08:00:36.185Z,8.75
2023-03-08T08:03:22.094Z,8.45
2023-03-08T08:06:08.155Z,9.25
2023-03-08T08:08:55.271Z,9.38
2023-03-08T08:11:41.235Z,8.75
2023-03-08T08:14:26.309Z,9.23
2023-03-08T08:17:11.849Z,9.10
2023-03-08T08:19:57.014Z,8.65
2023-03-08T08:22:42.393Z,10.23
2023-03-08T08:25:27.851Z,9.38
2023-03-08T08:28:13.295Z,8.93
2023-03-08T08:31:01.993Z,8.45
2023-03-08T08:33:47.167Z,8.50
2023-03-08T08:36:32.652Z,8.40
2023-03-08T08:39:18.090Z,8.35
2023-03-08T08:42:03.684Z,8.27
2023-03-08T08:44:49.968Z,8.23
2023-03-08T08:47:35.148Z,7.65
2023-03-08T08:50:20.730Z,8.27
2023-03-08T08:53:06.319Z,7.90
2023-03-08T08:55:51.518Z,7.53
2023-03-08T08:58:37.039Z,7.05
2023-03-08T09:01:28.193Z,6.95
2023-03-08T09:04:16.656Z,6.43
2023-03-08T09:07:02.628Z,6.25
2023-03-08T09:09:47.824Z,6.13
2023-03-08T09:12:33.450Z,5.22
2023-03-08T09:15:19.062Z,4.68
2023-03-08T09:18:05.594Z,4.90
2023-03-08T09:20:51.756Z,5.00
2023-03-08T09:23:37.635Z,4.68
2023-03-08T09:26:23.018Z,4.88
2023-03-08T09:29:08.557Z,4.45
2023-03-08T09:31:53.895Z,5.65
2023-03-08T09:34:39.655Z,5.75
2023-03-08T09:37:24.861Z,7.35
2023-03-08T09:40:34.410Z,7.70
2023-03-08T09:43:32.390Z,7.93
2023-03-08T09:46:28.187Z,10.75
2023-03-08T09:49:26.980Z,10.50
2023-03-08T09:52:30.878Z,11.05
2023-03-08T09:55:29.794Z,10.85
2023-03-08T09:58:30.951Z,11.73
2023-03-08T10:01:25.308Z,11.60
2023-03-08T10:04:13.110Z,12.18
2023-03-08T10:07:36.094Z,11.85
2023-03-08T10:10:41.774Z,13.27
2023-03-08T10:13:29.052Z,14.23
2023-03-08T10:16:23.731Z,13.57
2023-03-08T10:19:21.105Z,14.13
2023-03-08T10:22:16.426Z,13.32
2023-03-08T10:25:18.515Z,14.45
2023-03-08T10:28:11.488Z,14.82
2023-03-08T10:33:49.800Z,14.60
2023-03-08T10:36:35.323Z,14.18
2023-03-08T10:39:21.247Z,15.15
2023-03-08T10:42:15.468Z,17.00
2023-03-08T10:45:13.440Z,15.75
2023-03-08T10:48:01.595Z,15.35
2023-03-08T10:50:57.633Z,16.15
2023-03-08T10:53:59.563Z,15.07
2023-03-08T10:56:52.958Z,16.60
2023-03-08T10:59:38.101Z,16.15
2023-03-08T11:02:24.185Z,16.48
2023-03-08T11:05:27.530Z,15.00
2023-03-08T11:08:39.442Z,41.88
2023-03-08T11:11:24.634Z,16.33
2023-03-08T11:14:11.779Z,16.13
2023-03-08T11:17:02.421Z,15.32
2023-03-08T11:20:11.297Z,14.73
2023-03-08T11:23:15.481Z,13.15
2023-03-08T11:26:19.873Z,12.75
2023-03-08T11:29:17.855Z,14.02
2023-03-08T11:32:20.626Z,12.50
2023-03-08T11:35:14.920Z,11.55
2023-03-08T11:38:19.360Z,10.90
2023-03-08T11:41:10.893Z,10.35
2023-03-08T11:44:19.339Z,9.90
2023-03-08T11:47:44.861Z,10.63
2023-03-08T11:50:44.474Z,9.43
2023-03-08T11:53:53.656Z,10.65
2023-03-08T11:56:59.418Z,11.10
2023-03-08T12:00:16.570Z,9.55
2023-03-08T12:03:11.190Z,10.02
2023-03-08T12:06:01.037Z,8.80
2023-03-08T12:08:58.025Z,8.73
2023-03-08T12:11:47.629Z,9.10
2023-03-08T12:14:35.461Z,9.38
2023-03-08T12:17:27.271Z,9.15
2023-03-08T12:20:19.436Z,8.77
2023-03-08T12:23:21.462Z,8.88
2023-03-08T12:26:21.803Z,8.65
2023-03-08T12:29:31.018Z,8.75
2023-03-08T12:32:18.421Z,7.68
2023-03-08T12:35:24.795Z,8.10
2023-03-08T12:38:16.064Z,7.28
2023-03-08T12:41:02.647Z,7.22
2023-03-08T12:43:59.221Z,6.97
2023-03-08T12:47:02.393Z,6.95
2023-03-08T12:49:56.389Z,7.65
2023-03-08T12:52:42.499Z,7.40
2023-03-08T12:55:31.800Z,7.80
2023-03-08T12:58:17.932Z,7.68
2023-03-08T13:01:34.489Z,7.05
2023-03-08T13:04:39.312Z,7.13
2023-03-08T13:07:40.052Z,7.13
2023-03-08T13:10:32.375Z,7.97
2023-03-08T13:13:40.409Z,7.90
2023-03-08T13:16:38.637Z,7.18
2023-03-08T13:19:30.681Z,7.50
2023-03-08T13:22:43.889Z,7.85
2023-03-08T13:25:35.333Z,7.63
2023-03-08T13:28:46.709Z,7.68
2023-03-08T13:31:33.140Z,7.32
2023-03-08T13:34:31.237Z,6.72
2023-03-08T13:37:25.729Z,7.43
2023-03-08T13:40:17.473Z,7.25
2023-03-08T13:43:05.467Z,7.40
2023-03-08T13:45:53.588Z,7.53
2023-03-08T13:48:42.529Z,6.90
2023-03-08T13:51:29.570Z,6.47
2023-03-08T13:54:18.078Z,8.30
2023-03-08T13:57:07.354Z,6.97
2023-03-08T13:59:55.647Z,7.00
2023-03-08T14:02:46.212Z,6.43
2023-03-08T14:05:37.101Z,6.22
2023-03-08T14:08:25.043Z,6.40
2023-03-08T14:11:19.629Z,6.47
2023-03-08T14:14:09.331Z,6.15
2023-03-08T14:16:55.430Z,6.15
2023-03-08T14:19:41.216Z,5.93
2023-03-08T14:22:39.177Z,6.20
2023-03-08T14:25:31.263Z,5.72
2023-03-08T14:28:34.701Z,6.10
2023-03-08T14:31:28.159Z,5.82
2023-03-08T14:34:21.263Z,5.40
2023-03-08T14:37:12.550Z,6.05
2023-03-08T14:40:26.789Z,5.82
2023-03-08T14:43:24.463Z,6.15
2023-03-08T14:46:18.028Z,6.07
2023-03-08T14:49:04.947Z,5.68
2023-03-08T14:51:50.750Z,5.72
2023-03-08T14:54:37.311Z,6.65
2023-03-08T14:57:28.132Z,7.38
2023-03-08T15:00:15.787Z,6.53
2023-03-08T15:03:01.547Z,6.65
2023-03-08T15:05:47.596Z,6.75
2023-03-08T15:08:33.395Z,6.90
2023-03-08T15:11:18.973Z,6.30
2023-03-08T15:14:04.379Z,6.05
2023-03-08T15:16:51.053Z,5.85
2023-03-08T15:19:36.586Z,5.78
2023-03-08T15:22:22.415Z,5.60
2023-03-08T15:25:21.228Z,6.10
2023-03-08T15:28:06.544Z,5.32
2023-03-08T15:30:54.615Z,6.10
2023-03-08T15:33:41.678Z,5.43
2023-03-08T15:36:27.282Z,5.20
2023-03-08T15:39:13.930Z,5.15
2023-03-08T15:42:00.538Z,5.22
2023-03-08T15:44:45.791Z,5.40
2023-03-08T15:47:31.103Z,5.55
2023-03-08T15:50:18.315Z,5.30
2023-03-08T15:53:03.716Z,5.03
2023-03-08T15:55:49.492Z,6.45
2023-03-08T15:58:34.886Z,6.88
2023-03-08T16:01:20.845Z,6.90
2023-03-08T16:04:06.357Z,5.70
2023-03-08T16:06:52.128Z,5.95
2023-03-08T16:09:40.246Z,5.97
2023-03-08T16:12:25.750Z,5.88
2023-03-08T16:15:11.471Z,6.38
2023-03-08T16:17:57.298Z,5.85
2023-03-08T16:20:43.255Z,6.10
2023-03-08T16:23:28.511Z,6.22
2023-03-08T16:26:17.477Z,6.45
2023-03-08T16:29:03.281Z,6.45
2023-03-08T16:31:49.416Z,6.72
2023-03-08T16:34:35.203Z,6.63
2023-03-08T16:37:21.150Z,6.43
2023-03-08T16:40:07.526Z,6.53
2023-03-08T16:42:52.897Z,6.65
2023-03-08T16:45:38.503Z,6.25
2023-03-08T16:48:25.506Z,7.05
2023-03-08T16:51:19.672Z,6.30
2023-03-08T16:54:06.031Z,6.75
2023-03-08T16:56:51.976Z,6.57
2023-03-08T16:59:39.800Z,7.38
2023-03-08T17:02:25.477Z,7.10
2023-03-08T17:05:12.770Z,7.50
2023-03-08T17:07:58.436Z,6.80
2023-03-08T17:10:45.321Z,7.22
2023-03-08T17:13:32.698Z,7.45
2023-03-08T17:16:24.100Z,7.82
2023-03-08T17:19:11.906Z,7.63
2023-03-08T17:21:57.149Z,8.02
2023-03-08T17:24:42.679Z,7.20
2023-03-08T17:27:28.555Z,6.78
2023-03-08T17:30:14.398Z,7.50
2023-03-08T17:33:00.202Z,7.40
2023-03-08T17:35:46.096Z,7.72
2023-03-08T17:38:32.928Z,8.18
2023-03-08T17:41:18.518Z,8.13
2023-03-08T17:44:04.212Z,8.40
2023-03-08T17:46:49.445Z,9.63
2023-03-08T17:49:35.105Z,9.15
2023-03-08T17:52:20.719Z,9.15
2023-03-08T17:55:06.617Z,9.45
2023-03-08T17:57:52.017Z,9.55
2023-03-08T18:00:38.030Z,9.93
2023-03-08T18:03:24.171Z,9.77
2023-03-08T18:06:36.434Z,10.00
2023-03-08T18:09:21.730Z,9.63
2023-03-08T18:12:11.566Z,11.05
2023-03-08T18:14:56.695Z,10.90
2023-03-08T18:17:42.414Z,11.40
2023-03-08T18:20:29.627Z,11.90
2023-03-08T18:23:15.308Z,13.27
2023-03-08T18:26:00.897Z,12.10
2023-03-08T18:28:46.627Z,12.02
2023-03-08T18:31:35.202Z,12.23
2023-03-08T18:34:21.073Z,12.50
2023-03-08T18:37:06.364Z,13.35
2023-03-08T18:39:55.198Z,12.52
2023-03-08T18:42:42.117Z,12.07
2023-03-08T18:45:27.245Z,13.38
2023-03-08T18:48:12.779Z,12.13
2023-03-08T18:51:01.013Z,12.55
2023-03-08T18:53:46.420Z,12.90
2023-03-08T18:56:32.093Z,13.88
2023-03-08T18:59:17.471Z,14.30
2023-03-08T19:02:03.020Z,13.27
2023-03-08T19:04:48.484Z,12.77
2023-03-08T19:07:34.861Z,13.00
2023-03-08T19:10:20.408Z,11.77
2023-03-08T19:13:07.894Z,12.73
2023-03-08T19:15:53.455Z,12.55
2023-03-08T19:18:39.183Z,11.65
2023-03-08T19:21:27.494Z,12.85
2023-03-08T19:24:14.402Z,12.55
2023-03-08T19:27:00.144Z,12.02
2023-03-08T19:29:45.636Z,11.35
2023-03-08T19:32:31.071Z,11.32
2023-03-08T19:35:16.366Z,12.18
2023-03-08T19:38:01.910Z,12.90
2023-03-08T19:40:47.312Z,11.82
2023-03-08T19:43:32.685Z,11.70
2023-03-08T19:46:18.391Z,11.95
2023-03-08T19:49:06.147Z,11.13
2023-03-08T19:51:54.515Z,11.65
2023-03-08T19:54:41.866Z,12.00
2023-03-08T19:57:27.143Z,12.90
2023-03-08T20:00:13.743Z,11.95
2023-03-08T20:02:59.543Z,13.10
2023-03-08T20:05:47.188Z,12.15
2023-03-08T20:08:33.866Z,14.32
2023-03-08T20:11:20.507Z,13.23
2023-03-08T20:14:06.335Z,14.05
2023-03-08T20:16:51.693Z,14.10
2023-03-08T20:19:37.108Z,13.63
2023-03-08T20:22:22.469Z,14.90
2023-03-08T20:25:12.170Z,13.55
2023-03-08T20:27:57.926Z,14.77
2023-03-08T20:30:43.927Z,14.48
2023-03-08T20:33:29.305Z,14.90
2023-03-08T20:36:15.770Z,14.60
2023-03-08T20:39:01.421Z,15.32
2023-03-08T20:41:47.270Z,14.95
2023-03-08T20:44:32.573Z,15.40
2023-03-08T20:47:18.183Z,15.00
2023-03-08T20:50:03.941Z,15.02
2023-03-08T20:52:49.375Z,15.43
2023-03-08T20:55:38.652Z,14.57
2023-03-08T20:58:25.065Z,14.20
2023-03-08T21:01:18.957Z,14.45
2023-03-08T21:04:05.089Z,13.88
2023-03-08T21:06:50.294Z,14.20
2023-03-08T21:09:35.729Z,12.95
2023-03-08T21:12:22.212Z,14.73
2023-03-08T21:15:08.460Z,15.07
2023-03-08T21:17:53.837Z,15.10
2023-03-08T21:20:39.135Z,13.63
2023-03-08T21:23:24.742Z,13.35
2023-03-08T21:26:09.952Z,14.32
2023-03-08T21:28:57.784Z,13.25
2023-03-08T21:31:48.176Z,13.23
2023-03-08T21:34:33.787Z,12.25
2023-03-08T21:37:19.178Z,12.60
2023-03-08T21:40:07.107Z,12.63
2023-03-08T21:42:52.537Z,12.02
2023-03-08T21:45:41.619Z,12.38
2023-03-08T21:48:26.737Z,11.80
2023-03-08T21:51:13.241Z,11.98
2023-03-08T21:53:58.725Z,10.63
2023-03-08T21:56:44.394Z,10.32
2023-03-08T21:59:30.347Z,11.68
2023-03-08T22:02:15.821Z,11.50
2023-03-08T22:05:03.688Z,11.77
2023-03-08T22:07:49.150Z,13.32
2023-03-08T22:10:34.570Z,12.65
2023-03-08T22:13:21.620Z,12.82
2023-03-08T22:16:07.869Z,12.57
2023-03-08T22:18:55.385Z,12.93
2023-03-08T22:21:40.651Z,12.55
2023-03-08T22:24:26.846Z,11.40
2023-03-08T22:27:13.684Z,10.73
2023-03-08T22:29:59.451Z,11.30
2023-03-08T22:32:45.137Z,10.32
2023-03-08T22:35:30.603Z,10.02
2023-03-08T22:38:18.653Z,10.30
2023-03-08T22:41:10.671Z,8.48
2023-03-08T22:43:56.200Z,8.43
2023-03-08T22:46:41.916Z,8.77
2023-03-08T22:49:27.109Z,8.30
2023-03-08T22:52:12.520Z,8.32
2023-03-08T22:54:57.981Z,8.07
2023-03-08T22:57:43.539Z,7.90
2023-03-08T23:00:29.067Z,8.23
2023-03-08T23:03:14.560Z,7.13
2023-03-08T23:06:00.077Z,7.30
2023-03-08T23:08:46.530Z,6.90
2023-03-08T23:11:32.978Z,6.55
2023-03-08T23:14:18.234Z,6.57
2023-03-08T23:17:03.630Z,6.20
2023-03-08T23:19:50.624Z,5.97
2023-03-08T23:22:35.993Z,6.47
2023-03-08T23:25:21.354Z,7.13
2023-03-08T23:28:07.476Z,6.78
2023-03-08T23:30:52.501Z,7.78
2023-03-08T23:33:38.396Z,7.10
2023-03-08T23:36:25.599Z,8.30
2023-03-08T23:39:11.215Z,8.75
2023-03-08T23:41:56.779Z,8.40
2023-03-08T23:44:42.185Z,7.78
2023-03-08T23:47:27.686Z,8.32
2023-03-08T23:50:13.120Z,9.75
2023-03-08T23:52:58.824Z,10.63
2023-03-08T23:55:44.103Z,11.68
2023-03-08T23:58:29.506Z,11.10
